createdAt,value
2019-04-04T00:01:05.889Z,13.73
2019-04-04T00:04:10.306Z,13.77
2019-04-04T00:07:13.889Z,13.67
2019-04-04T00:10:17.473Z,12.87
2019-04-04T00:13:21.056Z,12.67
2019-04-04T00:16:24.643Z,13.03
2019-04-04T00:19:29.930Z,13.00
2019-04-04T00:22:35.487Z,12.37
2019-04-04T00:25:40.423Z,12.30
2019-04-04T00:28:46.062Z,12.10
2019-04-04T00:31:50.290Z,12.30
2019-04-04T00:34:54.046Z,11.83
2019-04-04T00:37:57.636Z,11.37
2019-04-04T00:41:01.217Z,11.73
2019-04-04T00:44:06.162Z,11.33
2019-04-04T00:47:09.755Z,11.27
2019-04-04T00:50:13.805Z,11.13
2019-04-04T00:53:17.640Z,10.23
2019-04-04T00:56:21.224Z,10.13
2019-04-04T00:59:24.796Z,9.97
2019-04-04T01:02:28.378Z,10.07
2019-04-04T01:05:32.642Z,9.43
2019-04-04T01:08:38.810Z,9.20
2019-04-04T01:11:41.614Z,8.87
2019-04-04T01:14:45.185Z,9.27
2019-04-04T01:17:49.057Z,9.10
2019-04-04T01:20:52.641Z,9.13
2019-04-04T01:23:58.326Z,9.40
2019-04-04T01:27:02.059Z,8.53
2019-04-04T01:30:06.403Z,8.40
2019-04-04T01:33:10.382Z,8.40
2019-04-04T01:36:14.267Z,7.90
2019-04-04T01:39:18.098Z,8.20
2019-04-04T01:42:22.026Z,7.97
2019-04-04T01:45:25.918Z,7.77
2019-04-04T01:48:29.794Z,7.73
2019-04-04T01:51:33.655Z,7.53
2019-04-04T01:54:37.206Z,7.40
2019-04-04T01:57:40.784Z,7.70
2019-04-04T02:00:45.991Z,7.23
2019-04-04T02:03:50.089Z,7.07
2019-04-04T02:06:54.047Z,6.43
2019-04-04T02:09:57.963Z,6.60
2019-04-04T02:13:01.851Z,6.37
2019-04-04T02:16:06.104Z,6.33
2019-04-04T02:19:09.714Z,6.77
2019-04-04T02:22:13.301Z,6.23
2019-04-04T02:25:17.204Z,6.17
2019-04-04T02:28:20.776Z,6.20
2019-04-04T02:31:26.543Z,6.03
2019-04-04T02:34:30.780Z,6.20
2019-04-04T02:37:34.370Z,6.30
2019-04-04T02:40:40.970Z,5.47
2019-04-04T02:43:43.240Z,6.00
2019-04-04T02:46:46.885Z,5.80
2019-04-04T02:49:50.452Z,5.97
2019-04-04T02:52:54.030Z,5.90
2019-04-04T02:56:02.259Z,5.77
2019-04-04T02:59:03.153Z,5.33
2019-04-04T03:02:06.732Z,5.07
2019-04-04T03:05:10.359Z,5.17
2019-04-04T03:08:14.247Z,5.10
2019-04-04T03:11:21.284Z,5.40
2019-04-04T03:14:23.198Z,5.00
2019-04-04T03:17:31.731Z,5.00
2019-04-04T03:20:32.052Z,4.83
2019-04-04T03:23:35.648Z,5.40
2019-04-04T03:26:39.549Z,5.33
2019-04-04T03:29:43.102Z,4.73
2019-04-04T03:32:51.855Z,4.70
2019-04-04T03:35:52.217Z,4.83
2019-04-04T03:38:55.864Z,4.70
2019-04-04T03:42:01.739Z,4.73
2019-04-04T03:45:05.679Z,4.40
2019-04-04T03:48:09.249Z,4.60
2019-04-04T03:51:12.823Z,4.23
2019-04-04T03:54:23.352Z,4.63
2019-04-04T03:57:25.678Z,4.30
2019-04-04T04:00:29.936Z,4.83
2019-04-04T04:03:33.498Z,4.40
2019-04-04T04:06:41.337Z,4.63
2019-04-04T04:09:42.617Z,4.23
2019-04-04T04:12:46.548Z,4.23
2019-04-04T04:15:50.202Z,11.57
2019-04-04T04:18:54.415Z,72.03
2019-04-04T04:21:58.961Z,55.07
2019-04-04T04:25:03.633Z,48.60
2019-04-04T04:28:07.340Z,18.87
2019-04-04T04:31:14.261Z,41.83
2019-04-04T04:34:16.236Z,47.90
2019-04-04T04:37:21.081Z,234.07
2019-04-04T04:40:25.286Z,186.73
2019-04-04T04:43:32.367Z,178.53
2019-04-04T04:46:34.543Z,170.00
2019-04-04T04:49:38.428Z,161.97
2019-04-04T04:52:42.016Z,148.43
2019-04-04T04:55:45.595Z,91.93
2019-04-04T04:58:49.601Z,77.47
2019-04-04T05:01:53.196Z,67.07
2019-04-04T05:04:57.283Z,62.10
2019-04-04T05:08:02.386Z,17.20
2019-04-04T05:11:05.966Z,36.23
2019-04-04T05:14:09.891Z,53.93
2019-04-04T05:17:13.557Z,49.93
2019-04-04T05:20:17.204Z,51.70
2019-04-04T05:23:20.801Z,49.23
2019-04-04T05:26:24.385Z,47.27
2019-04-04T05:29:28.020Z,47.07
2019-04-04T05:32:31.603Z,45.40
2019-04-04T05:35:37.651Z,45.80
2019-04-04T05:38:42.761Z,44.80
2019-04-04T05:41:46.091Z,43.80
2019-04-04T05:44:50.185Z,43.10
2019-04-04T05:47:56.299Z,40.60
2019-04-04T05:50:59.376Z,40.73
2019-04-04T05:54:02.964Z,40.70
2019-04-04T05:57:06.806Z,38.37
2019-04-04T06:00:13.022Z,38.33
2019-04-04T06:03:16.977Z,37.77
2019-04-04T06:06:20.545Z,36.73
2019-04-04T06:09:24.135Z,36.03
2019-04-04T06:12:27.987Z,35.90
2019-04-04T06:15:32.248Z,33.60
2019-04-04T06:18:36.849Z,34.37
2019-04-04T06:21:40.412Z,33.80
2019-04-04T06:24:44.621Z,32.87
2019-04-04T06:27:48.197Z,31.27
2019-04-04T06:30:54.215Z,32.73
2019-04-04T06:33:57.288Z,30.60
2019-04-04T06:37:00.836Z,31.67
2019-04-04T06:40:05.112Z,30.93
2019-04-04T06:43:11.529Z,30.00
2019-04-04T06:46:14.240Z,29.43
2019-04-04T06:49:17.809Z,27.80
2019-04-04T06:52:23.474Z,28.70
2019-04-04T06:55:28.716Z,27.57
2019-04-04T06:58:31.967Z,27.43
2019-04-04T07:01:35.835Z,27.17
2019-04-04T07:04:39.419Z,26.90
2019-04-04T07:07:44.035Z,25.57
2019-04-04T07:10:57.496Z,25.20
2019-04-04T07:13:52.948Z,25.00
2019-04-04T07:16:56.916Z,23.63
2019-04-04T07:20:00.651Z,24.43
2019-04-04T07:23:04.506Z,24.13
2019-04-04T07:26:09.605Z,23.63
2019-04-04T07:29:13.386Z,23.03
2019-04-04T07:32:17.202Z,23.20
2019-04-04T07:35:21.247Z,22.83
2019-04-04T07:38:26.636Z,22.77
2019-04-04T07:41:30.393Z,21.87
2019-04-04T07:44:33.964Z,21.57
2019-04-04T07:47:37.518Z,20.07
2019-04-04T07:50:41.087Z,21.23
2019-04-04T07:53:44.640Z,20.23
2019-04-04T07:56:48.925Z,19.33
2019-04-04T07:59:52.562Z,19.67
2019-04-04T08:02:56.128Z,19.17
2019-04-04T08:06:00.032Z,18.40
2019-04-04T08:09:05.735Z,18.23
2019-04-04T08:12:09.590Z,19.17
2019-04-04T08:15:13.300Z,18.33
2019-04-04T08:18:17.140Z,18.07
2019-04-04T08:21:20.708Z,17.63
2019-04-04T08:24:24.338Z,17.47
2019-04-04T08:27:27.899Z,16.63
2019-04-04T08:30:31.473Z,16.43
2019-04-04T08:33:35.352Z,15.87
2019-04-04T08:36:39.165Z,16.43
2019-04-04T08:39:43.088Z,15.87
2019-04-04T08:42:46.969Z,15.90
2019-04-04T08:45:50.525Z,16.07
2019-04-04T08:48:54.684Z,15.27
2019-04-04T08:51:58.258Z,15.63
2019-04-04T08:55:01.815Z,15.27
2019-04-04T08:58:06.061Z,15.07
2019-04-04T09:01:09.946Z,14.53
2019-04-04T09:04:13.851Z,13.77
2019-04-04T09:07:17.862Z,14.17
2019-04-04T09:10:21.412Z,14.43
2019-04-04T09:13:25.265Z,13.53
2019-04-04T09:16:28.830Z,13.67
2019-04-04T09:19:32.402Z,13.50
2019-04-04T09:22:35.965Z,12.50
2019-04-04T09:25:40.986Z,12.40
2019-04-04T09:28:44.645Z,12.43
2019-04-04T09:31:48.543Z,11.73
2019-04-04T09:34:52.114Z,12.10
2019-04-04T09:37:55.675Z,11.80
2019-04-04T09:40:59.637Z,11.27
2019-04-04T09:44:05.845Z,11.33
2019-04-04T09:47:08.596Z,11.10
2019-04-04T09:50:12.932Z,10.80
2019-04-04T09:53:16.501Z,11.37
2019-04-04T09:56:20.320Z,11.60
2019-04-04T09:59:23.879Z,10.27
2019-04-04T10:02:27.431Z,10.87
2019-04-04T10:05:31.524Z,11.07
2019-04-04T10:08:38.594Z,10.90
2019-04-04T10:11:40.841Z,10.40
2019-04-04T10:14:44.404Z,9.97
2019-04-04T10:17:49.504Z,10.07
2019-04-04T10:20:53.204Z,10.40
2019-04-04T10:23:56.775Z,10.10
2019-04-04T10:27:00.389Z,9.60
2019-04-04T10:30:04.342Z,9.50
2019-04-04T10:33:07.906Z,10.13
2019-04-04T10:36:11.468Z,9.77
2019-04-04T10:39:28.037Z,9.40
2019-04-04T10:42:20.329Z,9.40
2019-04-04T10:45:24.183Z,8.60
2019-04-04T10:48:28.245Z,8.63
2019-04-04T10:51:31.887Z,8.60
2019-04-04T10:54:35.447Z,8.50
2019-04-04T10:57:39.016Z,8.47
2019-04-04T11:00:42.633Z,8.77
2019-04-04T11:03:46.189Z,8.83
2019-04-04T11:06:49.764Z,8.70
2019-04-04T11:09:53.597Z,8.10
2019-04-04T11:12:57.155Z,7.93
2019-04-04T11:16:00.717Z,8.00
2019-04-04T11:19:04.293Z,8.00
2019-04-04T11:22:07.858Z,7.67
2019-04-04T11:25:11.408Z,7.70
2019-04-04T11:28:15.228Z,7.47
2019-04-04T11:31:18.864Z,7.90
2019-04-04T11:34:22.419Z,7.60
2019-04-04T11:37:26.244Z,7.83
2019-04-04T11:40:29.798Z,7.30
2019-04-04T11:43:33.355Z,7.33
2019-04-04T11:46:36.908Z,7.90
2019-04-04T11:49:40.467Z,7.23
2019-04-04T11:52:44.376Z,7.90
2019-04-04T11:55:48.257Z,6.90
2019-04-04T11:58:51.815Z,7.30
2019-04-04T12:01:55.435Z,7.17
2019-04-04T12:04:59.247Z,7.50
2019-04-04T12:08:02.807Z,7.10
2019-04-04T12:11:06.531Z,7.20
2019-04-04T12:14:10.405Z,7.67
2019-04-04T12:17:13.952Z,7.10
2019-04-04T12:20:17.509Z,6.60
2019-04-04T12:23:21.321Z,7.40
2019-04-04T12:26:24.871Z,7.17
2019-04-04T12:29:28.479Z,6.20
2019-04-04T12:32:32.328Z,6.53
2019-04-04T12:35:35.884Z,6.80
2019-04-04T12:38:39.611Z,6.30
2019-04-04T12:41:43.174Z,6.20
2019-04-04T12:44:47.082Z,6.40
2019-04-04T12:47:50.902Z,6.30
2019-04-04T12:50:54.453Z,5.90
2019-04-04T12:53:58.007Z,6.00
2019-04-04T12:57:01.871Z,6.40
2019-04-04T13:00:07.340Z,6.00
2019-04-04T13:03:10.886Z,6.17
2019-04-04T13:06:14.442Z,5.77
2019-04-04T13:09:17.995Z,6.20
2019-04-04T13:12:21.547Z,6.20
2019-04-04T13:15:25.132Z,5.50
2019-04-04T13:18:28.680Z,6.30
2019-04-04T13:21:33.125Z,5.63
2019-04-04T13:24:36.659Z,5.77
2019-04-04T13:27:40.233Z,5.90
2019-04-04T13:30:43.788Z,5.90
2019-04-04T13:33:47.334Z,5.57
2019-04-04T13:36:51.220Z,5.50
2019-04-04T13:39:54.781Z,5.67
2019-04-04T13:42:58.687Z,5.80
2019-04-04T13:46:02.250Z,5.93
2019-04-04T13:49:05.793Z,5.13
2019-04-04T13:52:11.700Z,5.83
2019-04-04T13:55:15.304Z,5.63
2019-04-04T13:58:21.973Z,5.43
2019-04-04T14:01:25.509Z,5.63
2019-04-04T14:04:29.081Z,5.37
2019-04-04T14:07:32.893Z,5.87
2019-04-04T14:10:36.702Z,5.63
2019-04-04T14:13:40.791Z,5.40
2019-04-04T14:16:46.921Z,5.47
2019-04-04T14:19:50.515Z,5.23
2019-04-04T14:22:54.188Z,21.73
2019-04-04T14:25:59.897Z,22.10
2019-04-04T14:29:04.638Z,23.73
2019-04-04T14:32:08.298Z,22.50
2019-04-04T14:35:12.005Z,23.23
2019-04-04T14:38:15.919Z,23.33
2019-04-04T14:41:19.487Z,86.40
2019-04-04T14:44:23.404Z,392.67
2019-04-04T14:47:26.986Z,465.00
2019-04-04T14:50:30.854Z,540.07
2019-04-04T14:53:34.739Z,48.00
2019-04-04T14:56:38.686Z,101.67
2019-04-04T14:59:42.511Z,220.50
2019-04-04T15:02:46.374Z,161.63
2019-04-04T15:05:49.943Z,132.67
2019-04-04T15:08:53.752Z,124.57
2019-04-04T15:11:57.314Z,114.53
2019-04-04T15:15:01.199Z,114.10
2019-04-04T15:18:04.840Z,101.70
2019-04-04T15:21:08.612Z,102.93
2019-04-04T15:24:12.185Z,99.70
2019-04-04T15:27:15.747Z,96.93
2019-04-04T15:30:19.394Z,95.03
2019-04-04T15:33:23.261Z,92.90
2019-04-04T15:36:27.079Z,90.43
2019-04-04T15:39:30.649Z,88.60
2019-04-04T15:42:34.219Z,85.83
2019-04-04T15:45:37.785Z,85.60
2019-04-04T15:48:41.362Z,84.17
2019-04-04T15:51:44.927Z,81.80
2019-04-04T15:54:48.499Z,79.17
2019-04-04T15:57:52.067Z,78.57
2019-04-04T16:00:55.639Z,76.73
2019-04-04T16:03:59.264Z,73.50
2019-04-04T16:07:04.538Z,74.13
2019-04-04T16:10:08.862Z,72.17
2019-04-04T16:13:12.450Z,72.33
2019-04-04T16:16:16.023Z,69.20
2019-04-04T16:19:19.591Z,65.80
2019-04-04T16:22:23.152Z,67.27
2019-04-04T16:25:27.084Z,65.57
2019-04-04T16:28:30.697Z,64.07
2019-04-04T16:31:34.610Z,62.57
2019-04-04T16:34:38.333Z,61.33
2019-04-04T16:37:41.907Z,61.10
2019-04-04T16:40:45.717Z,59.83
2019-04-04T16:43:49.797Z,60.07
2019-04-04T16:46:53.785Z,58.37
2019-04-04T16:49:57.354Z,57.37
2019-04-04T16:53:00.914Z,56.17
2019-04-04T16:56:04.689Z,55.87
2019-04-04T16:59:08.257Z,56.17
2019-04-04T17:02:11.819Z,54.33
2019-04-04T17:05:16.097Z,53.07
2019-04-04T17:08:19.712Z,50.57
2019-04-04T17:11:23.285Z,53.57
2019-04-04T17:14:26.849Z,50.33
2019-04-04T17:17:30.412Z,50.07
2019-04-04T17:20:33.971Z,48.50
2019-04-04T17:23:37.541Z,46.90
2019-04-04T17:26:41.983Z,48.33
2019-04-04T17:29:45.545Z,46.43
2019-04-04T17:32:50.313Z,43.83
2019-04-04T17:35:54.713Z,46.13
2019-04-04T17:38:58.287Z,44.77
2019-04-04T17:42:01.850Z,43.23
2019-04-04T17:45:06.994Z,42.47
2019-04-04T17:48:10.609Z,42.00
2019-04-04T17:51:14.668Z,42.77
2019-04-04T17:54:18.938Z,41.10
2019-04-04T17:57:22.493Z,39.70
2019-04-04T18:00:27.293Z,39.70
2019-04-04T18:03:30.850Z,40.13
2019-04-04T18:06:34.425Z,36.33
2019-04-04T18:09:37.973Z,36.73
2019-04-04T18:12:41.821Z,38.13
2019-04-04T18:15:45.445Z,37.07
2019-04-04T18:18:49.013Z,36.53
2019-04-04T18:21:52.576Z,33.53
2019-04-04T18:24:56.135Z,34.67
2019-04-04T18:27:59.696Z,33.70
2019-04-04T18:31:03.278Z,31.93
2019-04-04T18:34:08.329Z,32.13
2019-04-04T18:37:12.134Z,32.50
2019-04-04T18:40:15.953Z,32.53
2019-04-04T18:43:19.517Z,31.80
2019-04-04T18:46:23.086Z,30.50
2019-04-04T18:49:26.645Z,31.60
2019-04-04T18:52:30.213Z,30.13
2019-04-04T18:55:33.771Z,28.20
2019-04-04T18:58:37.337Z,27.63
2019-04-04T19:01:40.951Z,28.20
2019-04-04T19:04:44.509Z,28.20
2019-04-04T19:07:48.147Z,27.17
2019-04-04T19:10:51.714Z,27.03
2019-04-04T19:13:55.350Z,26.90
2019-04-04T19:16:58.922Z,26.03
2019-04-04T19:20:02.481Z,25.73
2019-04-04T19:23:06.050Z,24.43
2019-04-04T19:26:09.760Z,25.03
2019-04-04T19:29:13.330Z,23.63
2019-04-04T19:32:16.889Z,23.97
2019-04-04T19:35:20.454Z,23.30
2019-04-04T19:38:24.032Z,24.17
2019-04-04T19:41:27.671Z,22.77
2019-04-04T19:44:31.236Z,22.13
2019-04-04T19:47:34.796Z,22.20
2019-04-04T19:50:39.256Z,21.23
2019-04-04T19:53:43.019Z,20.90
2019-04-04T19:56:46.645Z,20.83
2019-04-04T19:59:50.527Z,21.83
2019-04-04T20:02:54.097Z,20.27
2019-04-04T20:05:58.234Z,20.23
2019-04-04T20:09:01.798Z,19.37
2019-04-04T20:12:06.126Z,19.47
2019-04-04T20:15:09.785Z,18.40
2019-04-04T20:18:13.433Z,18.07
2019-04-04T20:21:17.002Z,18.80
2019-04-04T20:24:20.568Z,17.73
2019-04-04T20:27:24.132Z,18.17
2019-04-04T20:30:38.053Z,17.33
2019-04-04T20:33:41.611Z,17.70
2019-04-04T20:36:45.173Z,17.17
2019-04-04T20:39:49.089Z,16.67
2019-04-04T20:42:52.656Z,16.83
2019-04-04T20:45:56.224Z,16.97
2019-04-04T20:49:00.353Z,16.03
2019-04-04T20:52:03.913Z,16.03
2019-04-04T20:55:07.553Z,15.20
2019-04-04T20:58:11.129Z,13.37
2019-04-04T21:01:14.695Z,15.93
2019-04-04T21:04:18.255Z,28.00
2019-04-04T21:07:22.370Z,39.27
2019-04-04T21:10:25.923Z,57.07
2019-04-04T21:13:29.495Z,52.40
2019-04-04T21:16:33.056Z,48.30
2019-04-04T21:19:36.609Z,18.37
2019-04-04T21:22:40.526Z,24.47
2019-04-04T21:25:44.381Z,58.83
2019-04-04T21:28:48.556Z,57.07
2019-04-04T21:31:52.413Z,67.73
2019-04-04T21:34:55.973Z,59.27
2019-04-04T21:37:59.539Z,54.30
2019-04-04T21:41:03.097Z,48.57
2019-04-04T21:44:09.084Z,46.27
2019-04-04T21:47:12.022Z,42.33
2019-04-04T21:50:15.577Z,40.07
2019-04-04T21:53:19.482Z,38.33
2019-04-04T21:56:23.069Z,36.67
2019-04-04T21:59:26.637Z,34.47
2019-04-04T22:02:30.552Z,33.53
2019-04-04T22:05:34.105Z,32.87
2019-04-04T22:08:37.710Z,31.10
2019-04-04T22:11:41.325Z,30.33
2019-04-04T22:14:44.889Z,28.73
2019-04-04T22:17:48.457Z,28.60
2019-04-04T22:20:52.588Z,27.90
2019-04-04T22:23:56.165Z,26.63
2019-04-04T22:26:59.745Z,25.13
2019-04-04T22:30:03.633Z,25.70
2019-04-04T22:33:07.197Z,24.43
2019-04-04T22:36:11.007Z,24.40
2019-04-04T22:39:14.935Z,23.80
2019-04-04T22:42:18.491Z,22.97
2019-04-04T22:45:22.650Z,22.93
2019-04-04T22:48:26.212Z,22.47
2019-04-04T22:51:29.764Z,21.63
2019-04-04T22:54:33.339Z,22.07
2019-04-04T22:57:36.918Z,20.77
2019-04-04T23:00:40.490Z,20.73
2019-04-04T23:03:44.061Z,20.33
2019-04-04T23:06:47.880Z,20.10
2019-04-04T23:09:51.441Z,20.57
2019-04-04T23:12:55.002Z,20.03
2019-04-04T23:15:58.581Z,19.27
2019-04-04T23:19:02.144Z,19.13
2019-04-04T23:22:05.789Z,18.50
2019-04-04T23:25:09.525Z,18.33
2019-04-04T23:28:13.166Z,18.63
2019-04-04T23:31:16.741Z,18.07
2019-04-04T23:34:20.628Z,17.70
2019-04-04T23:37:24.180Z,17.37
2019-04-04T23:40:28.045Z,17.87
2019-04-04T23:43:31.946Z,17.13
2019-04-04T23:46:35.758Z,17.47
2019-04-04T23:49:39.328Z,16.17
2019-04-04T23:52:42.891Z,16.63
2019-04-04T23:55:46.459Z,16.13
2019-04-04T23:58:50.271Z,15.90
